Time;durP1;ratioP1;P1;durP2;ratioP2;P2;SDS_P1;SDS_P2;PMS_P1;PMS_P2;Temp;Humidity;BMP_temperature;BMP_pressure;BME280_temperature;BME280_humidity;BME280_pressure;Samples;Min_cycle;Max_cycle;Signal;HPM_P1;HPM_P2
2023/12/28 00:02:18;;;;;;;9.65;2.90;;;;;;;-146.25;100.00;70816.00;5043869;28;20396;-59
2023/12/28 00:04:47;;;;;;;14.40;3.38;;;;;;;-146.25;100.00;70816.00;5046437;28;20083;-58
2023/12/28 00:07:56;;;;;;;12.95;3.33;;;;;;;-146.25;100.00;70816.00;5047923;28;20033;-59
2023/12/28 00:10:15;;;;;;;12.88;3.53;;;;;;;-146.25;100.00;70816.00;5062686;28;20035;-59
2023/12/28 00:12:41;;;;;;;10.68;3.25;;;;;;;-146.25;100.00;70816.00;5043665;28;20067;-59
2023/12/28 00:15:07;;;;;;;11.45;3.47;;;;;;;-146.25;100.00;70816.00;5045444;28;20021;-58
2023/12/28 00:17:33;;;;;;;9.95;3.20;;;;;;;-146.25;100.00;70816.00;5044341;28;20075;-59
2023/12/28 00:20:12;;;;;;;12.13;3.30;;;;;;;-146.25;100.00;70816.00;5044438;28;20028;-59
2023/12/28 00:22:52;;;;;;;10.60;3.10;;;;;;;-146.25;100.00;70816.00;5040368;28;20021;-59
2023/12/28 00:25:21;;;;;;;12.48;3.22;;;;;;;-146.25;100.00;70816.00;5039525;28;20025;-58
2023/12/28 00:27:47;;;;;;;10.73;3.03;;;;;;;-146.25;100.00;70816.00;5053782;28;20027;-60
2023/12/28 00:30:13;;;;;;;10.82;3.58;;;;;;;-146.25;100.00;70816.00;5056292;28;20020;-61
2023/12/28 00:32:43;;;;;;;13.43;3.80;;;;;;;-146.25;100.00;70816.00;5050711;28;20024;-60
2023/12/28 00:35:14;;;;;;;12.18;3.50;;;;;;;-146.25;100.00;70816.00;5053755;28;20021;-59
2023/12/28 00:37:39;;;;;;;9.55;3.10;;;;;;;-146.25;100.00;70816.00;5051832;28;20027;-58
2023/12/28 00:40:09;;;;;;;11.10;3.53;;;;;;;-146.25;100.00;70816.00;5055470;28;20398;-59
2023/12/28 00:42:40;;;;;;;10.82;3.03;;;;;;;-146.25;100.00;70816.00;5050469;28;20027;-59
2023/12/28 00:45:09;;;;;;;11.65;3.28;;;;;;;-146.25;100.00;70816.00;5056071;28;20031;-58
2023/12/28 00:47:43;;;;;;;12.52;3.33;;;;;;;-146.25;100.00;70816.00;5050444;28;20052;-59
2023/12/28 00:50:11;;;;;;;11.07;3.50;;;;;;;-146.25;100.00;70816.00;5050642;28;20491;-60
2023/12/28 00:52:37;;;;;;;11.73;3.67;;;;;;;-146.25;100.00;70816.00;5050415;28;20052;-59
2023/12/28 00:55:03;;;;;;;10.60;3.35;;;;;;;-146.25;100.00;70816.00;5060147;28;20135;-60
2023/12/28 00:57:29;;;;;;;13.70;3.72;;;;;;;-146.25;100.00;70816.00;5073280;28;20050;-59
2023/12/28 00:59:55;;;;;;;13.20;3.70;;;;;;;-146.25;100.00;70816.00;5062292;28;20028;-58
2023/12/28 01:02:30;;;;;;;11.95;3.35;;;;;;;-146.25;100.00;70816.00;5063773;28;20071;-59
2023/12/28 01:04:55;;;;;;;11.85;3.53;;;;;;;-146.25;100.00;70816.00;5056821;28;20021;-58
2023/12/28 01:07:26;;;;;;;10.63;3.42;;;;;;;-146.25;100.00;70816.00;5054876;28;20029;-58
2023/12/28 01:09:52;;;;;;;10.98;3.50;;;;;;;-146.25;100.00;70816.00;5062317;28;20020;-58
2023/12/28 01:12:18;;;;;;;13.23;3.80;;;;;;;-146.25;100.00;70816.00;5065377;28;20498;-58
2023/12/28 01:14:46;;;;;;;12.20;3.70;;;;;;;-146.25;100.00;70816.00;5058936;28;20034;-59
2023/12/28 01:17:11;;;;;;;13.65;3.63;;;;;;;-146.25;100.00;70816.00;5055645;28;20391;-59
2023/12/28 01:22:23;;;;;;;14.10;3.67;;;;;;;-146.25;100.00;70816.00;5053208;28;20033;-61
2023/12/28 01:24:49;;;;;;;10.18;3.35;;;;;;;-146.25;100.00;70816.00;5054798;28;20070;-61
2023/12/28 01:31:05;;;;;;;9.82;2.95;;;;;;;-146.25;100.00;70816.00;5041104;28;20459;-59
2023/12/28 01:34:37;;;;;;;11.68;3.45;;;;;;;-146.25;100.00;70816.00;4996954;28;20030;-60
2023/12/28 01:37:07;;;;;;;14.20;3.60;;;;;;;-146.25;100.00;70816.00;5007242;28;20283;-59
2023/12/28 01:40:47;;;;;;;;;;;;;;;;;;;;;
2023/12/28 01:43:36;;;;;;;12.38;2.88;;;;;;;-146.25;100.00;70816.00;5064634;28;20040;-58
2023/12/28 01:46:02;;;;;;;9.65;3.22;;;;;;;-146.25;100.00;70816.00;5039800;28;20072;-59
2023/12/28 01:48:28;;;;;;;10.77;3.55;;;;;;;-146.25;100.00;70816.00;5060752;28;20028;-61
2023/12/28 01:50:58;;;;;;;11.30;3.47;;;;;;;-146.25;100.00;70816.00;5058454;28;20051;-59
2023/12/28 01:53:24;;;;;;;14.18;3.90;;;;;;;-146.25;100.00;70816.00;5040627;28;20158;-58
2023/12/28 01:55:55;;;;;;;11.68;3.50;;;;;;;-146.25;100.00;70816.00;5034552;28;20048;-59
2023/12/28 01:58:21;;;;;;;12.90;3.30;;;;;;;-146.25;100.00;70816.00;5026062;28;20395;-59
2023/12/28 02:00:50;;;;;;;12.07;3.22;;;;;;;-146.25;100.00;70816.00;5033070;28;20017;-59
2023/12/28 02:03:16;;;;;;;14.25;3.20;;;;;;;-146.25;100.00;70816.00;5033851;28;20060;-59
2023/12/28 02:05:42;;;;;;;15.02;3.67;;;;;;;-146.25;100.00;70816.00;5029767;28;20025;-60
2023/12/28 02:08:07;;;;;;;11.07;3.35;;;;;;;-146.25;100.00;70816.00;5033542;28;20029;-60
2023/12/28 02:10:33;;;;;;;10.85;3.45;;;;;;;-146.25;100.00;70816.00;5033719;28;20389;-59
2023/12/28 02:12:58;;;;;;;9.05;2.95;;;;;;;-146.25;100.00;70816.00;5033777;28;20144;-59
2023/12/28 02:15:24;;;;;;;13.02;3.22;;;;;;;-146.25;100.00;70816.00;5050488;28;20033;-60
2023/12/28 02:18:24;;;;;;;11.93;3.50;;;;;;;-146.25;100.00;70816.00;5033785;28;20029;-60
2023/12/28 02:20:50;;;;;;;10.98;3.45;;;;;;;-146.25;100.00;70816.00;5032355;28;20043;-60
2023/12/28 02:23:16;;;;;;;14.63;3.88;;;;;;;-146.25;100.00;70816.00;5033784;28;20024;-60
2023/12/28 02:25:41;;;;;;;14.00;3.30;;;;;;;-146.25;100.00;70816.00;5033624;28;20459;-59
2023/12/28 02:28:09;;;;;;;12.57;3.35;;;;;;;-146.25;100.00;70816.00;5031857;28;20024;-59
2023/12/28 02:30:35;;;;;;;12.95;3.35;;;;;;;-146.25;100.00;70816.00;5034805;28;20057;-59
2023/12/28 02:33:09;;;;;;;12.35;3.10;;;;;;;-146.25;100.00;70816.00;5034092;28;20051;-59
2023/12/28 02:35:35;;;;;;;11.30;3.75;;;;;;;-146.25;100.00;70816.00;5031378;28;20028;-59
2023/12/28 02:38:10;;;;;;;12.57;3.30;;;;;;;-146.25;100.00;70816.00;5033685;28;20388;-60
2023/12/28 02:40:41;;;;;;;13.80;3.53;;;;;;;-146.25;100.00;70816.00;5031734;28;20028;-58
2023/12/28 02:43:08;;;;;;;13.25;3.22;;;;;;;-146.25;100.00;70816.00;5032697;28;20023;-60
2023/12/28 02:45:34;;;;;;;12.20;3.00;;;;;;;-146.25;100.00;70816.00;5032994;28;20037;-59
2023/12/28 02:48:00;;;;;;;11.98;3.20;;;;;;;-146.25;100.00;70816.00;5032664;28;20029;-59
2023/12/28 02:50:25;;;;;;;14.98;3.47;;;;;;;-146.25;100.00;70816.00;5032335;28;20043;-60
2023/12/28 02:52:51;;;;;;;12.35;3.15;;;;;;;-146.25;100.00;70816.00;5041249;28;20045;-59
2023/12/28 02:55:21;;;;;;;15.32;3.30;;;;;;;-146.25;100.00;70816.00;5051501;28;20384;-59
2023/12/28 02:57:47;;;;;;;9.98;3.10;;;;;;;-146.25;100.00;70816.00;5053518;28;20021;-59
2023/12/28 03:00:13;;;;;;;13.70;2.95;;;;;;;-146.25;100.00;70816.00;5052445;28;20115;-59
2023/12/28 03:02:38;;;;;;;10.90;3.17;;;;;;;-146.25;100.00;70816.00;5052710;28;20070;-59
2023/12/28 03:05:05;;;;;;;10.38;3.08;;;;;;;-146.25;100.00;70816.00;5052483;28;20036;-59
2023/12/28 03:07:31;;;;;;;12.57;2.85;;;;;;;-146.25;100.00;70816.00;5051600;28;20035;-60
2023/12/28 03:09:57;;;;;;;11.68;3.40;;;;;;;-146.25;100.00;70816.00;5052607;28;20143;-59
2023/12/28 03:12:23;;;;;;;13.77;3.35;;;;;;;-146.25;100.00;70816.00;5036646;28;20115;-59
2023/12/28 03:14:48;;;;;;;11.63;3.35;;;;;;;-146.25;100.00;70816.00;5053812;28;20040;-60
2023/12/28 03:17:19;;;;;;;12.55;3.20;;;;;;;-146.25;100.00;70816.00;5054547;28;20531;-60
2023/12/28 03:19:45;;;;;;;12.23;3.70;;;;;;;-146.25;100.00;70816.00;5054221;28;20545;-59
2023/12/28 03:22:21;;;;;;;9.88;3.00;;;;;;;-146.25;100.00;70816.00;5055705;28;20022;-64
2023/12/28 03:24:55;;;;;;;10.45;3.00;;;;;;;-146.25;100.00;70816.00;5052337;28;20472;-60
2023/12/28 03:27:32;;;;;;;;;;;;;;;-146.25;100.00;70816.00;5051474;28;20101;-58
2023/12/28 03:29:58;;;;;;;10.68;2.95;;;;;;;-146.25;100.00;70816.00;5050549;28;19920;-59
2023/12/28 03:32:23;;;;;;;14.68;2.92;;;;;;;-146.25;100.00;70816.00;5049716;28;20029;-59
2023/12/28 03:34:48;;;;;;;11.88;2.75;;;;;;;-146.25;100.00;70816.00;5049552;28;20055;-59
2023/12/28 03:37:30;;;;;;;10.90;2.65;;;;;;;-146.25;100.00;70816.00;5049354;28;20044;-60
2023/12/28 03:40:18;;;;;;;11.05;2.90;;;;;;;-146.25;100.00;70816.00;5048477;28;20041;-59
2023/12/28 03:42:44;;;;;;;11.93;2.80;;;;;;;-146.25;100.00;70816.00;5049288;28;20024;-60
2023/12/28 03:45:09;;;;;;;10.98;2.80;;;;;;;-146.25;100.00;70816.00;5051176;28;20015;-60
2023/12/28 03:47:35;;;;;;;12.63;3.35;;;;;;;-146.25;100.00;70816.00;5052823;28;20024;-58
2023/12/28 03:50:01;;;;;;;15.13;2.92;;;;;;;-146.25;100.00;70816.00;5052021;28;20024;-59
2023/12/28 03:52:46;;;;;;;12.38;2.67;;;;;;;-146.25;100.00;70816.00;5052166;28;20137;-61
2023/12/28 03:55:11;;;;;;;11.95;2.50;;;;;;;-146.25;100.00;70816.00;5047989;28;20037;-59
2023/12/28 03:57:51;;;;;;;12.20;3.10;;;;;;;-146.25;100.00;70816.00;5044675;28;20037;-59
2023/12/28 04:00:25;;;;;;;10.25;2.90;;;;;;;-146.25;100.00;70816.00;5043101;28;20094;-58
2023/12/28 04:02:59;;;;;;;10.25;2.80;;;;;;;-146.25;100.00;70816.00;5044758;28;20040;-59
2023/12/28 04:05:30;;;;;;;12.43;2.95;;;;;;;-146.25;100.00;70816.00;5043956;28;20044;-59
2023/12/28 04:08:05;;;;;;;12.85;2.80;;;;;;;-146.25;100.00;70816.00;5055233;28;20025;-59
2023/12/28 04:10:49;;;;;;;12.52;2.60;;;;;;;-146.25;100.00;70816.00;5049152;28;20031;-60
2023/12/28 04:13:24;;;;;;;14.23;2.92;;;;;;;-146.25;100.00;70816.00;5048881;28;20040;-60
2023/12/28 04:15:49;;;;;;;14.43;2.80;;;;;;;-146.25;100.00;70816.00;5044994;28;20123;-59
2023/12/28 04:18:29;;;;;;;11.70;2.90;;;;;;;-146.25;100.00;70816.00;5049435;28;20042;-59
2023/12/28 04:21:31;;;;;;;10.57;2.28;;;;;;;-146.25;100.00;70816.00;5044988;28;20036;-59
2023/12/28 04:24:32;;;;;;;;;;;;;;;;;;;;;
2023/12/28 04:27:33;;;;;;;16.25;2.60;;;;;;;-146.25;100.00;70816.00;5060105;28;20029;-60
2023/12/28 04:40:09;;;;;;;;;;;;;;;;;;;;;
2023/12/28 04:43:18;;;;;;;11.18;2.53;;;;;;;-146.25;100.00;70816.00;5053627;28;20042;-60
2023/12/28 04:46:23;;;;;;;15.30;2.50;;;;;;;-146.25;100.00;70816.00;5045633;28;20599;-60
2023/12/28 04:52:47;;;;;;;;;;;;;;;;;;;;;
2023/12/28 04:56:09;;;;;;;14.13;2.53;;;;;;;-146.25;100.00;70816.00;5078356;28;20047;-60
2023/12/28 05:02:17;;;;;;;14.43;2.70;;;;;;;-146.25;100.00;70816.00;5067859;28;20020;-58
2023/12/28 05:09:26;;;;;;;15.82;2.80;;;;;;;-146.25;100.00;70816.00;4957013;28;20038;-60
2023/12/28 05:23:13;;;;;;;;;;;;;;;;;;;;;
2023/12/28 05:33:22;;;;;;;14.18;2.60;;;;;;;-146.25;100.00;70816.00;4998097;28;20192;-60
2023/12/28 05:35:51;;;;;;;14.35;2.75;;;;;;;-146.25;100.00;70816.00;4995015;28;20038;-60
2023/12/28 05:38:25;;;;;;;12.73;2.75;;;;;;;-146.25;100.00;70816.00;4988708;28;20034;-61
2023/12/28 05:40:53;;;;;;;16.60;2.95;;;;;;;-146.25;100.00;70816.00;5003427;28;20049;-60
2023/12/28 05:43:50;;;;;;;16.98;2.95;;;;;;;-146.25;100.00;70816.00;4988614;28;20189;-59
2023/12/28 05:46:47;;;;;;;15.93;2.67;;;;;;;-146.25;100.00;70816.00;5043651;28;20446;-59
2023/12/28 05:49:19;;;;;;;15.75;2.90;;;;;;;-146.25;100.00;70816.00;5060056;28;20040;-59
2023/12/28 05:51:47;;;;;;;17.48;3.00;;;;;;;-146.25;100.00;70816.00;5061238;28;20368;-59
2023/12/28 05:54:13;;;;;;;13.90;2.83;;;;;;;-146.25;100.00;70816.00;5066815;28;20155;-60
2023/12/28 05:56:43;;;;;;;15.98;3.45;;;;;;;-146.25;100.00;70816.00;5053934;28;20107;-60
2023/12/28 05:59:08;;;;;;;17.83;3.00;;;;;;;-146.25;100.00;70816.00;5053575;28;20456;-60
2023/12/28 06:01:42;;;;;;;14.38;2.70;;;;;;;-146.25;100.00;70816.00;5062019;28;20157;-59
2023/12/28 06:04:07;;;;;;;12.43;2.80;;;;;;;-146.25;100.00;70816.00;5058494;28;20040;-60
2023/12/28 06:06:34;;;;;;;18.85;3.08;;;;;;;-146.25;100.00;70816.00;5059094;28;20029;-60
2023/12/28 06:08:59;;;;;;;17.90;3.08;;;;;;;-146.25;100.00;70816.00;5055139;28;20037;-59
2023/12/28 06:11:25;;;;;;;15.65;2.60;;;;;;;-146.25;100.00;70816.00;5054539;28;20093;-60
2023/12/28 06:13:50;;;;;;;15.70;2.85;;;;;;;-146.25;100.00;70816.00;5091526;28;20459;-58
2023/12/28 06:16:15;;;;;;;18.58;3.17;;;;;;;-146.25;100.00;70816.00;5063411;28;20126;-59
2023/12/28 06:18:54;;;;;;;15.90;3.00;;;;;;;-146.25;100.00;70816.00;5065740;28;20051;-59
2023/12/28 06:38:25;;;;;;;15.93;3.22;;;;;;;-146.25;100.00;70816.00;5024706;28;20079;-60
2023/12/28 06:40:51;;;;;;;15.27;2.65;;;;;;;-146.25;100.00;70816.00;5008444;28;20030;-59
2023/12/28 06:43:16;;;;;;;20.83;3.00;;;;;;;-146.25;100.00;70816.00;5044460;28;20071;-60
2023/12/28 06:45:41;;;;;;;11.20;2.28;;;;;;;-146.25;100.00;70816.00;5052571;28;20033;-58
2023/12/28 06:48:07;;;;;;;15.32;3.22;;;;;;;-146.25;100.00;70816.00;5052773;28;20112;-58
2023/12/28 06:50:32;;;;;;;17.60;2.67;;;;;;;-146.25;100.00;70816.00;5052745;28;20025;-60
2023/12/28 06:52:58;;;;;;;18.25;3.10;;;;;;;-146.25;100.00;70816.00;5057809;28;20033;-61
2023/12/28 06:55:23;;;;;;;18.05;2.90;;;;;;;-146.25;100.00;70816.00;5048785;28;20121;-60
2023/12/28 06:57:48;;;;;;;16.70;2.78;;;;;;;-146.25;100.00;70816.00;5055535;28;20081;-61
2023/12/28 07:00:14;;;;;;;22.02;2.97;;;;;;;-146.25;100.00;70816.00;5051443;28;20388;-60
2023/12/28 07:02:40;;;;;;;18.40;3.20;;;;;;;-146.25;100.00;70816.00;5048479;28;20482;-61
2023/12/28 07:05:08;;;;;;;19.83;3.67;;;;;;;-146.25;100.00;70816.00;5052327;28;20032;-60
2023/12/28 07:07:33;;;;;;;16.13;3.00;;;;;;;-146.25;100.00;70816.00;5068915;28;20525;-60
2023/12/28 07:10:02;;;;;;;17.48;2.65;;;;;;;-146.25;100.00;70816.00;5056199;28;21680;-59
2023/12/28 07:12:28;;;;;;;17.15;2.88;;;;;;;-146.25;100.00;70816.00;5056290;28;20040;-60
2023/12/28 07:14:53;;;;;;;14.63;2.70;;;;;;;-146.25;100.00;70816.00;5049152;28;20474;-60
2023/12/28 07:17:19;;;;;;;19.45;2.97;;;;;;;-146.25;100.00;70816.00;5056075;28;20028;-60
2023/12/28 07:19:44;;;;;;;17.55;3.00;;;;;;;-146.25;100.00;70816.00;5054362;28;20033;-60
2023/12/28 07:22:14;;;;;;;20.08;3.38;;;;;;;-146.25;100.00;70816.00;5047388;28;20107;-59
2023/12/28 07:24:40;;;;;;;17.33;2.90;;;;;;;-146.25;100.00;70816.00;5051155;28;20063;-59
2023/12/28 07:27:06;;;;;;;19.35;2.70;;;;;;;-146.25;100.00;70816.00;5050467;28;20032;-59
2023/12/28 07:29:31;;;;;;;21.17;3.13;;;;;;;-146.25;100.00;70816.00;5054615;28;20139;-60
2023/12/28 07:31:56;;;;;;;16.30;2.58;;;;;;;-146.25;100.00;70816.00;5052670;28;20427;-60
2023/12/28 07:34:22;;;;;;;21.65;5.35;;;;;;;-146.25;100.00;70816.00;5049056;28;20038;-59
2023/12/28 07:36:47;;;;;;;20.33;3.80;;;;;;;-146.25;100.00;70816.00;5054323;28;20603;-60
2023/12/28 07:39:13;;;;;;;19.35;3.28;;;;;;;-146.25;100.00;70816.00;5056706;28;20536;-61
2023/12/28 07:41:38;;;;;;;17.30;3.50;;;;;;;-146.25;100.00;70816.00;5054704;28;20032;-61
2023/12/28 07:44:04;;;;;;;17.08;2.70;;;;;;;-146.25;100.00;70816.00;5050892;28;20049;-60
2023/12/28 07:46:29;;;;;;;20.10;3.42;;;;;;;-146.25;100.00;70816.00;5052709;28;20513;-59
2023/12/28 07:48:55;;;;;;;18.50;3.28;;;;;;;-146.25;100.00;70816.00;5051576;28;20056;-60
2023/12/28 07:51:20;;;;;;;15.88;2.75;;;;;;;-146.25;100.00;70816.00;5052195;28;20021;-60
2023/12/28 07:53:49;;;;;;;15.27;2.92;;;;;;;-146.25;100.00;70816.00;5054372;28;20050;-60
2023/12/28 07:56:14;;;;;;;20.98;3.58;;;;;;;-146.25;100.00;70816.00;5055708;28;20036;-60
2023/12/28 07:58:40;;;;;;;21.75;3.42;;;;;;;-146.25;100.00;70816.00;5051700;28;20038;-61
2023/12/28 08:22:20;;;;;;;;;;;;;;;;;;;;;
2023/12/28 09:00:02;;;;;;;;;;;;;;;;;;;;;
2023/12/28 11:10:33;;;;;;;;;;;;;;;;;;;;;
2023/12/28 11:13:58;;;;;;;;;;;;;;;;;;;;;
2023/12/28 12:52:33;;;;;;;;;;;;;;;;;;;;;
2023/12/28 22:02:25;;;;;;;16.13;2.60;;;;;;;-146.25;100.00;70816.00;5064326;28;20048;-59
2023/12/28 22:05:17;;;;;;;;;;;;;;;;;;;;;
2023/12/28 22:08:21;;;;;;;17.23;2.95;;;;;;;-146.25;100.00;70816.00;5105916;28;20050;-60
2023/12/28 22:11:13;;;;;;;15.20;3.40;;;;;;;-146.25;100.00;70816.00;5097023;28;20448;-60
2023/12/28 22:13:41;;;;;;;18.52;3.13;;;;;;;-146.25;100.00;70816.00;5097191;28;20467;-60
2023/12/28 22:16:07;;;;;;;16.65;2.83;;;;;;;-146.25;100.00;70816.00;5098882;28;20039;-60
2023/12/28 22:18:54;;;;;;;12.88;2.58;;;;;;;-146.25;100.00;70816.00;5097085;28;20052;-63
2023/12/28 22:22:04;;;;;;;12.73;2.53;;;;;;;-146.25;100.00;70816.00;5108188;28;20027;-62
2023/12/28 22:24:29;;;;;;;18.80;2.85;;;;;;;-146.25;100.00;70816.00;5100156;28;20387;-62
2023/12/28 22:26:57;;;;;;;12.02;2.80;;;;;;;-146.25;100.00;70816.00;5100196;28;20043;-62
2023/12/28 22:30:00;;;;;;;15.00;2.90;;;;;;;-146.25;100.00;70816.00;5096216;28;20054;-61
2023/12/28 22:32:35;;;;;;;17.88;3.03;;;;;;;-146.25;100.00;70816.00;5096692;28;21091;-63
2023/12/28 22:35:49;;;;;;;15.00;3.25;;;;;;;-146.25;100.00;70816.00;5100010;28;20028;-63
2023/12/28 22:38:17;;;;;;;13.68;2.75;;;;;;;-146.25;100.00;70816.00;5097338;27;20050;-63
2023/12/28 22:40:44;;;;;;;13.55;2.85;;;;;;;-146.25;100.00;70816.00;5097504;28;20035;-62
2023/12/28 22:54:29;;;;;;;15.15;2.85;;;;;;;-146.25;100.00;70816.00;5042226;28;20040;-62
2023/12/28 23:10:34;;;;;;;20.58;2.90;;;;;;;-146.25;100.00;70816.00;5095030;28;20142;-63
2023/12/28 23:13:00;;;;;;;18.20;2.72;;;;;;;-146.25;100.00;70816.00;5076211;28;20024;-63
2023/12/28 23:15:29;;;;;;;16.33;2.90;;;;;;;-146.25;100.00;70816.00;5076363;28;20114;-63
2023/12/28 23:18:02;;;;;;;16.83;2.80;;;;;;;-146.25;100.00;70816.00;5076935;28;20035;-63
2023/12/28 23:20:28;;;;;;;16.23;2.65;;;;;;;-146.25;100.00;70816.00;5077602;28;20046;-63
2023/12/28 23:22:54;;;;;;;15.27;2.70;;;;;;;-146.25;100.00;70816.00;5076496;28;20032;-63
2023/12/28 23:25:55;;;;;;;13.18;2.47;;;;;;;-146.25;100.00;70816.00;5076696;28;20036;-63
2023/12/28 23:28:21;;;;;;;14.27;2.55;;;;;;;-146.25;100.00;70816.00;5015002;28;20036;-64
2023/12/28 23:41:52;;;;;;;12.18;2.33;;;;;;;-146.25;100.00;70816.00;5096893;28;20097;-63
